Euskara    
Meteorología y climatología de Navarra
Datos de la estación - Meteo Navarra

Estación de Etxarri-Aranatz GN

Altitud 505 m.


Datos desde el 18/10/2020 hasta el 19/10/2020 en horario solar
Los datos son PROVISIONALES

Anterior Página 1 de 1 Siguiente Descargar: Formato para Excel 2000 o superior   Formato csv   Formato para OpenOffice Calc
Fecha Temperatura Humedad relativa Radiación global Insolación Precipitación Vel. viento 10 m Vel. viento 10 m Dir. viento 10 m
°C % W/m² s l/m² m/s km/h °
18/10/2020 0:00 1.6 97 0.0 0 0.0 0.6 2.3 190
18/10/2020 0:10 1.5 97 0.0 0 0.0 0.8 3.0 206
18/10/2020 0:20 1.4 97 0.0 0 0.0 0.5 1.7 229
18/10/2020 0:30 1.7 98 0.0 0 0.0 0.4 1.4 186
18/10/2020 0:40 1.5 98 0.0 0 0.0 0.6 2.2 188
18/10/2020 0:50 1.5 97 0.0 0 0.0 0.1 0.4 183
18/10/2020 1:00 1.2 97 0.0 0 0.0 0.4 1.4 175
18/10/2020 1:10 0.9 97 0.0 0 0.0 0.0 0.1 171
18/10/2020 1:20 0.9 97 0.0 0 0.0 0.0 0.0 0
18/10/2020 1:30 1.1 98 0.0 0 0.0 0.2 0.5 195
18/10/2020 1:40 0.7 97 0.0 0 0.0 0.2 0.7 189
18/10/2020 1:50 1.0 98 0.0 0 0.0 0.4 1.3 204
18/10/2020 2:00 0.7 97 0.0 0 0.0 0.5 1.8 205
18/10/2020 2:10 0.6 97 0.0 0 0.0 0.3 1.2 208
18/10/2020 2:20 0.8 98 0.0 0 0.0 0.0 0.0 0
18/10/2020 2:30 0.8 98 0.0 0 0.0 0.0 0.0 0
18/10/2020 2:40 0.6 98 0.0 0 0.0 0.1 0.4 331
18/10/2020 2:50 1.1 98 0.0 0 0.0 0.8 2.7 334
18/10/2020 3:00 1.1 98 0.0 0 0.0 0.0 0.1 341
18/10/2020 3:10 0.4 97 0.0 0 0.0 0.3 0.9 209
18/10/2020 3:20 0.2 97 0.0 0 0.0 0.0 0.0 0
18/10/2020 3:30 0.4 98 0.0 0 0.0 0.6 2.0 175
18/10/2020 3:40 0.3 98 0.0 0 0.0 0.5 1.8 170
18/10/2020 3:50 0.4 98 0.0 0 0.0 0.6 2.1 167
18/10/2020 4:00 0.2 98 0.0 0 0.0 0.4 1.4 188
18/10/2020 4:10 0.3 98 0.0 0 0.0 0.0 0.0 0
18/10/2020 4:20 -0.1 98 0.0 0 0.0 0.0 0.0 0
18/10/2020 4:30 0.1 98 0.0 0 0.0 0.2 0.5 9
18/10/2020 4:40 0.5 98 0.0 0 0.0 0.2 0.5 21
18/10/2020 4:50 0.2 98 0.0 0 0.0 0.0 0.0 0
18/10/2020 5:00 0.0 98 0.0 0 0.0 0.0 0.0 0
18/10/2020 5:10 0.2 98 0.0 0 0.0 0.0 0.0 0
18/10/2020 5:20 0.3 98 0.0 0 0.0 0.0 0.0 0
18/10/2020 5:30 0.9 99 0.0 0 0.0 0.6 2.2 333
18/10/2020 5:40 1.2 99 0.0 0 0.0 0.4 1.3 331
18/10/2020 5:50 1.1 99 0.0 0 0.0 0.0 0.0 0
18/10/2020 6:00 1.0 99 0.0 0 0.0 0.3 1.0 155
18/10/2020 6:10 0.8 99 0.0 0 0.0 0.7 2.6 136
18/10/2020 6:20 0.7 99 0.0 0 0.0 0.1 0.3 125
18/10/2020 6:30 0.7 99 0.0 0 0.0 0.1 0.3 357
18/10/2020 6:40 1.0 99 2.8 0 0.0 0.1 0.2 337
18/10/2020 6:50 1.1 99 21.1 0 0.0 0.0 0.0 0
18/10/2020 7:00 1.1 99 29.0 0 0.0 0.0 0.0 0
18/10/2020 7:10 1.2 99 30.9 0 0.0 0.2 0.6 105
18/10/2020 7:20 1.3 99 40.3 0 0.0 0.1 0.4 90
18/10/2020 7:30 1.7 99 59.2 0 0.0 0.0 0.1 223
18/10/2020 7:40 2.1 99 86.1 4 0.0 0.2 0.5 360
18/10/2020 7:50 2.2 99 103.6 214 0.0 0.0 0.1 328
18/10/2020 8:00 2.3 99 88.5 0 0.0 0.0 0.0 0
18/10/2020 8:10 2.5 99 95.9 0 0.0 0.2 0.7 36
18/10/2020 8:20 2.8 99 141.4 22 0.0 0.2 0.8 79
18/10/2020 8:30 3.2 99 182.9 588 0.0 0.1 0.4 95
18/10/2020 8:40 3.5 99 211.5 556 0.0 0.2 0.8 144
18/10/2020 8:50 4.0 99 121.1 0 0.0 0.0 0.1 148
18/10/2020 9:00 4.2 99 114.0 0 0.0 0.2 0.8 281
18/10/2020 9:10 4.0 99 168.9 0 0.0 0.4 1.3 341
18/10/2020 9:20 4.4 99 283.9 592 0.0 0.3 1.1 39
18/10/2020 9:30 5.3 99 400.6 600 0.0 0.3 1.0 169
18/10/2020 9:40 6.0 99 319.3 600 0.0 0.4 1.3 239
18/10/2020 9:50 6.2 99 413.1 600 0.0 0.2 0.9 78
18/10/2020 10:00 7.5 99 475.8 600 0.0 0.8 3.0 111
18/10/2020 10:10 7.9 98 546.2 600 0.0 0.6 2.1 68
18/10/2020 10:20 8.0 93 462.9 600 0.0 0.5 1.8 128
18/10/2020 10:30 9.4 92 527.4 600 0.0 0.5 1.8 130
18/10/2020 10:40 10.2 83 576.5 600 0.0 0.5 1.8 74
18/10/2020 10:50 10.7 77 599.5 600 0.0 0.7 2.6 19
18/10/2020 11:00 11.5 76 605.5 600 0.0 0.7 2.4 61
18/10/2020 11:10 12.4 73 617.3 600 0.0 0.7 2.6 72
18/10/2020 11:20 13.0 71 623.4 600 0.0 0.6 2.2 75
18/10/2020 11:30 13.3 70 628.5 600 0.0 0.8 3.0 57
18/10/2020 11:40 14.1 67 632.6 600 0.0 0.7 2.6 56
18/10/2020 11:50 14.4 65 620.6 600 0.0 1.0 3.5 57
18/10/2020 12:00 15.2 64 634.9 600 0.0 0.6 2.1 67
18/10/2020 12:10 15.7 60 628.6 600 0.0 0.8 2.7 53
18/10/2020 12:20 15.7 62 592.5 600 0.0 0.7 2.6 61
18/10/2020 12:30 16.5 58 614.8 600 0.0 0.7 2.3 64
18/10/2020 12:40 16.4 56 573.1 600 0.0 0.8 2.8 55
18/10/2020 12:50 16.8 56 579.8 600 0.0 0.6 2.1 59
18/10/2020 13:00 17.9 57 530.6 600 0.0 1.0 3.7 76
18/10/2020 13:10 18.2 55 531.1 600 0.0 0.8 2.8 60
18/10/2020 13:20 18.4 54 544.3 600 0.0 0.6 2.3 67
18/10/2020 13:30 18.6 52 546.0 600 0.0 0.5 1.8 57
18/10/2020 13:40 18.8 54 547.8 600 0.0 0.8 2.8 57
18/10/2020 13:50 18.8 54 534.9 600 0.0 0.7 2.7 58
18/10/2020 14:00 18.7 54 473.2 600 0.0 0.7 2.6 58
18/10/2020 14:10 19.2 57 318.0 506 0.0 0.7 2.5 65
18/10/2020 14:20 19.0 57 389.2 524 0.0 0.7 2.6 61
18/10/2020 14:30 19.2 56 411.3 600 0.0 0.8 2.7 58
18/10/2020 14:40 19.0 57 400.7 600 0.0 0.8 2.8 56
18/10/2020 14:50 19.0 57 340.8 600 0.0 0.8 2.9 58
18/10/2020 15:00 19.1 57 286.3 560 0.0 0.9 3.1 57
18/10/2020 15:10 18.2 55 195.0 296 0.0 1.0 3.5 50
18/10/2020 15:20 18.0 57 140.5 116 0.0 0.9 3.4 52
18/10/2020 15:30 17.4 59 107.5 4 0.0 0.8 2.8 49
18/10/2020 15:40 17.2 60 209.6 600 0.0 0.8 2.9 48
18/10/2020 15:50 17.9 60 239.6 600 0.0 0.8 3.0 72
18/10/2020 16:00 18.7 55 210.7 600 0.0 0.5 1.8 61
18/10/2020 16:10 18.4 60 170.5 600 0.0 0.4 1.6 152
18/10/2020 16:20 18.8 61 141.6 600 0.0 0.5 1.8 100
18/10/2020 16:30 18.5 59 111.7 600 0.0 0.6 2.1 51
18/10/2020 16:40 16.6 61 82.6 600 0.0 0.8 3.0 32
18/10/2020 16:50 15.9 66 55.8 600 0.0 0.3 1.2 77
18/10/2020 17:00 15.2 68 30.1 332 0.0 0.2 0.7 1
18/10/2020 17:10 14.3 71 1.1 0 0.0 0.2 0.6 42
18/10/2020 17:20 13.3 74 0.0 0 0.0 0.3 1.2 64
18/10/2020 17:30 12.5 79 0.0 0 0.0 0.4 1.4 51
18/10/2020 17:40 11.9 82 0.0 0 0.0 0.6 2.2 29
18/10/2020 17:50 11.5 84 0.0 0 0.0 0.4 1.5 348
18/10/2020 18:00 10.6 86 0.0 0 0.0 0.4 1.3 352
18/10/2020 18:10 10.3 87 0.0 0 0.0 0.5 1.9 308
18/10/2020 18:20 9.8 90 0.0 0 0.0 0.3 1.2 309
18/10/2020 18:30 9.3 90 0.0 0 0.0 0.2 0.6 185
18/10/2020 18:40 9.3 93 0.0 0 0.0 0.2 0.8 146
18/10/2020 18:50 8.8 90 0.0 0 0.0 0.0 0.1 211
18/10/2020 19:00 8.4 93 0.0 0 0.0 0.3 1.0 311
18/10/2020 19:10 8.5 94 0.0 0 0.0 0.1 0.4 185
18/10/2020 19:20 7.9 92 0.0 0 0.0 0.1 0.4 45
18/10/2020 19:30 7.6 94 0.0 0 0.0 0.3 1.0 254
18/10/2020 19:40 7.4 95 0.0 0 0.0 0.4 1.4 192
18/10/2020 19:50 7.0 94 0.0 0 0.0 0.4 1.4 186
18/10/2020 20:00 6.8 95 0.0 0 0.0 0.1 0.2 163
18/10/2020 20:10 6.4 94 0.0 0 0.0 0.2 0.8 113
18/10/2020 20:20 6.2 95 0.0 0 0.0 0.2 0.7 202
18/10/2020 20:30 5.9 95 0.0 0 0.0 0.1 0.4 201
18/10/2020 20:40 6.2 96 0.0 0 0.0 0.0 0.1 138
18/10/2020 20:50 5.5 94 0.0 0 0.0 0.2 0.6 173
18/10/2020 21:00 5.6 97 0.0 0 0.0 0.2 0.8 220
18/10/2020 21:10 5.2 95 0.0 0 0.0 0.5 1.9 178
18/10/2020 21:20 5.2 97 0.0 0 0.0 0.0 0.1 172
18/10/2020 21:30 5.1 96 0.0 0 0.0 0.3 1.0 275
18/10/2020 21:40 4.9 96 0.0 0 0.0 0.4 1.5 169
18/10/2020 21:50 4.7 96 0.0 0 0.0 0.5 1.8 163
18/10/2020 22:00 5.0 98 0.0 0 0.0 0.3 1.1 50
18/10/2020 22:10 4.4 96 0.0 0 0.0 0.3 1.2 192
18/10/2020 22:20 4.7 97 0.0 0 0.0 0.6 2.1 10
18/10/2020 22:30 4.2 97 0.0 0 0.0 0.9 3.1 167
18/10/2020 22:40 4.2 98 0.0 0 0.0 0.3 1.1 245
18/10/2020 22:50 4.5 98 0.0 0 0.0 0.4 1.6 332
18/10/2020 23:00 4.0 97 0.0 0 0.0 0.6 2.1 311
18/10/2020 23:10 3.9 97 0.0 0 0.0 0.5 1.7 314
18/10/2020 23:20 4.2 98 0.0 0 0.0 0.2 0.8 350
18/10/2020 23:30 4.0 98 0.0 0 0.0 0.3 1.2 353
18/10/2020 23:40 3.9 98 0.0 0 0.0 0.5 1.8 313
18/10/2020 23:50 4.5 98 0.0 0 0.0 0.8 2.7 331
Anterior Página 1 de 1 Siguiente

NOTA: Tipo de datos según el color:
   - Valores diarios o 10 minutos correctos
   - Valores diarios calculados a partir de un número de datos 10 minutos menor que 144 y mayor que 120, o de un número de datos semihorarios menor que 48 y mayor que 40 (caso de las estaciones de INTIA Y Ministerio)
   - Valores diez minutos estimados


Contacto        Enlaces        Aviso legal